Time;durP1;ratioP1;P1;durP2;ratioP2;P2;SDS_P1;SDS_P2;PMS_P1;PMS_P2;Temp;Humidity;BMP_temperature;BMP_pressure;BME280_temperature;BME280_humidity;BME280_pressure;Samples;Min_cycle;Max_cycle;Signal;HPM_P1;HPM_P2
2022/04/11 00:00:27;;;;;;;3.13;1.55;;;12.60;99.80;;;;;;5034035;28;20418;-60
2022/04/11 00:02:52;;;;;;;4.57;1.80;;;12.50;99.90;;;;;;5030439;28;20022;-61
2022/04/11 00:05:18;;;;;;;5.28;1.67;;;12.50;99.90;;;;;;5034432;28;20028;-60
2022/04/11 00:07:44;;;;;;;6.45;1.95;;;12.50;99.90;;;;;;5032981;28;20087;-60
2022/04/11 00:10:10;;;;;;;5.05;1.55;;;12.50;99.90;;;;;;5033741;28;20037;-60
2022/04/11 00:12:38;;;;;;;3.85;1.35;;;12.40;99.90;;;;;;5034399;28;20086;-61
2022/04/11 00:15:08;;;;;;;7.75;1.60;;;12.30;99.90;;;;;;5035669;28;20032;-60
2022/04/11 00:17:35;;;;;;;5.88;1.73;;;12.30;99.90;;;;;;5034731;28;20034;-61
2022/04/11 00:20:01;;;;;;;6.70;1.80;;;12.20;99.90;;;;;;5039634;28;20021;-60
2022/04/11 00:22:27;;;;;;;6.45;1.95;;;12.20;99.90;;;;;;5034540;28;20356;-60
2022/04/11 00:24:53;;;;;;;7.38;2.20;;;12.20;99.90;;;;;;5035923;28;20048;-60
2022/04/11 00:27:19;;;;;;;6.05;1.70;;;12.10;99.90;;;;;;5037436;28;20398;-60
2022/04/11 00:29:44;;;;;;;4.82;1.60;;;12.20;99.90;;;;;;5017589;28;20121;-60
2022/04/11 00:32:10;;;;;;;6.40;1.90;;;12.10;99.90;;;;;;5039230;28;20172;-60
2022/04/11 00:34:36;;;;;;;4.40;1.67;;;12.00;99.90;;;;;;5037118;28;20116;-60
2022/04/11 00:37:02;;;;;;;7.68;2.00;;;12.00;99.90;;;;;;5036724;28;20053;-61
2022/04/11 00:39:28;;;;;;;6.90;2.00;;;12.00;99.90;;;;;;5037070;28;20114;-61
2022/04/11 00:41:53;;;;;;;6.78;1.83;;;12.00;99.90;;;;;;5033686;28;20029;-60
2022/04/11 00:44:19;;;;;;;5.68;1.73;;;11.90;99.90;;;;;;5037483;28;20033;-60
2022/04/11 00:46:45;;;;;;;7.63;1.85;;;11.90;99.90;;;;;;5038132;28;20036;-61
2022/04/11 00:49:10;;;;;;;7.75;2.15;;;11.90;99.90;;;;;;5036825;28;20386;-60
2022/04/11 00:51:38;;;;;;;5.38;1.60;;;11.90;99.90;;;;;;5036573;28;20051;-60
2022/04/11 00:54:04;;;;;;;4.40;1.73;;;11.90;99.90;;;;;;5035370;28;20026;-60
2022/04/11 00:56:30;;;;;;;4.85;1.70;;;11.80;99.90;;;;;;5034730;28;20036;-60
2022/04/11 00:59:00;;;;;;;8.40;2.05;;;11.80;99.90;;;;;;5036762;28;20087;-61
2022/04/11 01:01:25;;;;;;;8.73;2.05;;;11.70;99.90;;;;;;5035857;28;20060;-61
2022/04/11 01:03:51;;;;;;;3.50;1.60;;;11.80;99.90;;;;;;5035158;28;20029;-60
2022/04/11 01:06:17;;;;;;;7.10;1.90;;;11.70;99.90;;;;;;5036258;28;20052;-61
2022/04/11 01:08:43;;;;;;;7.28;1.60;;;11.70;99.90;;;;;;5032673;28;20034;-60
2022/04/11 01:11:09;;;;;;;6.53;2.20;;;11.70;99.90;;;;;;5038858;28;20033;-61
2022/04/11 01:13:34;;;;;;;4.63;1.80;;;11.70;99.90;;;;;;5036757;28;20112;-60
2022/04/11 01:16:05;;;;;;;5.15;1.70;;;11.60;99.90;;;;;;5036573;28;20026;-61
2022/04/11 01:18:38;;;;;;;3.85;1.65;;;11.60;99.90;;;;;;5036501;28;20052;-61
2022/04/11 01:21:08;;;;;;;6.13;1.80;;;11.60;99.90;;;;;;5034323;28;20528;-60
2022/04/11 01:23:34;;;;;;;4.65;1.65;;;11.60;99.90;;;;;;5033413;28;20387;-60
2022/04/11 01:26:00;;;;;;;6.28;1.92;;;11.50;99.90;;;;;;5038732;28;20084;-60
2022/04/11 01:28:25;;;;;;;4.93;1.95;;;11.50;99.90;;;;;;5036464;28;20482;-60
2022/04/11 01:30:53;;;;;;;4.88;1.75;;;11.50;99.90;;;;;;5036215;28;20033;-60
2022/04/11 01:33:24;;;;;;;9.20;1.90;;;11.40;99.90;;;;;;5036523;28;20070;-60
2022/04/11 01:35:50;;;;;;;6.93;1.75;;;11.40;99.90;;;;;;5031896;28;20077;-60
2022/04/11 01:38:17;;;;;;;3.78;1.65;;;11.40;99.90;;;;;;5037479;28;20118;-60
2022/04/11 01:40:56;;;;;;;5.35;2.00;;;11.40;99.90;;;;;;5036322;28;20027;-60
2022/04/11 01:43:23;;;;;;;5.25;1.60;;;11.50;99.90;;;;;;5034555;28;20386;-60
2022/04/11 01:45:49;;;;;;;3.80;1.73;;;11.40;99.90;;;;;;5035975;28;20032;-60
2022/04/11 01:48:16;;;;;;;5.95;2.50;;;11.40;99.90;;;;;;5035716;28;20486;-60
2022/04/11 01:50:41;;;;;;;7.47;1.75;;;11.40;99.90;;;;;;5031452;28;20034;-60
2022/04/11 01:53:13;;;;;;;4.38;2.00;;;11.30;99.90;;;;;;5037807;28;20031;-60
2022/04/11 01:55:39;;;;;;;4.90;1.80;;;11.30;99.90;;;;;;5036317;28;20092;-60
2022/04/11 01:58:06;;;;;;;5.85;1.88;;;11.20;99.90;;;;;;5035676;28;20033;-60
2022/04/11 02:00:33;;;;;;;5.30;1.70;;;11.30;99.90;;;;;;5035783;28;20029;-60
2022/04/11 02:02:59;;;;;;;5.80;1.70;;;11.30;99.90;;;;;;5033146;28;20108;-60
2022/04/11 02:05:29;;;;;;;8.48;2.10;;;11.30;99.90;;;;;;5034850;28;20044;-60
2022/04/11 02:07:56;;;;;;;5.80;2.10;;;11.20;99.90;;;;;;5037117;28;20021;-60
2022/04/11 02:10:22;;;;;;;8.73;2.00;;;11.20;99.90;;;;;;5035433;28;20425;-60
2022/04/11 02:12:49;;;;;;;7.85;2.10;;;11.20;99.90;;;;;;5035755;28;20029;-60
2022/04/11 02:15:15;;;;;;;7.53;2.10;;;11.20;99.90;;;;;;5034447;28;20039;-60
2022/04/11 02:17:41;;;;;;;5.05;2.05;;;11.20;99.90;;;;;;5030819;28;20022;-60
2022/04/11 02:20:08;;;;;;;6.65;1.98;;;11.10;99.90;;;;;;5036933;28;20636;-60
2022/04/11 02:22:54;;;;;;;4.85;1.83;;;11.10;99.90;;;;;;5033811;28;20025;-60
2022/04/11 02:25:22;;;;;;;5.60;1.95;;;11.10;99.90;;;;;;5035270;28;20026;-60
2022/04/11 02:27:48;;;;;;;6.10;1.92;;;11.10;99.90;;;;;;5035289;28;20450;-60
2022/04/11 02:30:16;;;;;;;8.27;2.30;;;11.10;99.90;;;;;;5034778;28;20033;-60
2022/04/11 02:32:42;;;;;;;5.38;2.00;;;11.10;99.90;;;;;;5030668;28;20418;-60
2022/04/11 02:35:08;;;;;;;8.38;2.42;;;11.00;99.90;;;;;;5036350;28;20018;-60
2022/04/11 02:37:34;;;;;;;6.88;2.00;;;11.00;99.90;;;;;;5035374;28;20048;-60
2022/04/11 02:40:01;;;;;;;4.90;1.85;;;11.00;99.90;;;;;;5034958;28;20376;-60
2022/04/11 02:42:28;;;;;;;5.15;1.92;;;11.00;99.90;;;;;;5035092;28;20447;-61
2022/04/11 02:44:54;;;;;;;7.65;2.10;;;10.90;99.90;;;;;;5031701;28;20022;-64
2022/04/11 02:47:20;;;;;;;7.93;2.17;;;11.00;99.90;;;;;;5035261;28;20113;-60
2022/04/11 02:49:47;;;;;;;5.50;1.95;;;10.90;99.90;;;;;;5035321;28;20032;-60
2022/04/11 02:52:13;;;;;;;6.53;1.95;;;10.90;99.90;;;;;;5034681;28;20040;-60
2022/04/11 02:54:39;;;;;;;5.10;1.75;;;10.90;99.90;;;;;;5035118;28;20021;-61
2022/04/11 02:57:06;;;;;;;9.52;2.10;;;10.90;99.90;;;;;;5031318;28;20037;-60
2022/04/11 02:59:33;;;;;;;10.82;2.35;;;10.90;99.90;;;;;;5031684;28;20414;-61
2022/04/11 03:02:00;;;;;;;10.05;2.72;;;10.90;99.90;;;;;;5034799;28;20025;-60
2022/04/11 03:04:26;;;;;;;6.25;2.00;;;10.90;99.90;;;;;;5034592;28;20018;-61
2022/04/11 03:06:53;;;;;;;8.15;2.22;;;10.90;99.90;;;;;;5034531;28;20110;-60
2022/04/11 03:09:19;;;;;;;5.50;2.30;;;10.80;99.90;;;;;;5034831;28;20035;-61
2022/04/11 03:11:45;;;;;;;6.05;1.90;;;10.80;99.90;;;;;;5030290;28;20037;-61
2022/04/11 03:14:11;;;;;;;6.60;2.08;;;10.80;99.90;;;;;;5036430;28;20022;-61
2022/04/11 03:16:37;;;;;;;7.80;2.20;;;10.70;99.90;;;;;;5033986;28;20040;-60
2022/04/11 03:19:03;;;;;;;6.70;2.10;;;10.70;99.90;;;;;;5034724;28;20108;-60
2022/04/11 03:21:29;;;;;;;9.27;2.45;;;10.70;99.90;;;;;;5034282;28;20079;-60
2022/04/11 03:23:55;;;;;;;9.00;2.58;;;10.70;99.90;;;;;;5030900;28;20021;-61
2022/04/11 03:26:21;;;;;;;8.13;2.17;;;10.70;99.90;;;;;;5034593;28;20049;-60
2022/04/11 03:28:46;;;;;;;7.38;2.30;;;10.60;99.90;;;;;;5033860;28;20041;-60
2022/04/11 03:31:12;;;;;;;7.93;1.92;;;10.70;99.90;;;;;;5033741;28;20087;-60
2022/04/11 03:33:37;;;;;;;8.13;1.90;;;10.70;99.90;;;;;;5034269;28;20381;-61
2022/04/11 03:36:04;;;;;;;6.72;2.42;;;10.70;99.90;;;;;;5030463;28;20038;-60
2022/04/11 03:38:30;;;;;;;6.85;2.70;;;10.70;99.90;;;;;;5032805;28;20028;-61
2022/04/11 03:40:55;;;;;;;9.38;2.78;;;10.80;99.90;;;;;;5034119;28;20117;-60
2022/04/11 03:43:21;;;;;;;9.20;2.72;;;10.80;99.90;;;;;;5034001;28;20494;-60
2022/04/11 03:45:47;;;;;;;8.63;2.67;;;10.70;99.90;;;;;;5033848;28;20029;-61
2022/04/11 03:48:15;;;;;;;8.57;2.38;;;10.50;99.90;;;;;;5034859;28;20029;-61
2022/04/11 03:50:41;;;;;;;5.32;2.10;;;10.60;99.90;;;;;;5034108;28;20095;-61
2022/04/11 03:53:06;;;;;;;10.38;2.47;;;10.60;99.90;;;;;;5040502;28;20026;-60
2022/04/11 03:55:32;;;;;;;9.05;3.20;;;10.60;99.90;;;;;;5038106;28;20751;-60
2022/04/11 03:57:58;;;;;;;9.05;2.28;;;10.50;99.90;;;;;;5037871;28;20060;-60
2022/04/11 04:00:24;;;;;;;9.82;2.72;;;10.50;99.90;;;;;;5037724;28;20033;-60
2022/04/11 04:02:50;;;;;;;6.05;1.98;;;10.50;99.90;;;;;;5034621;28;20033;-61
2022/04/11 04:05:16;;;;;;;8.40;2.70;;;10.50;99.90;;;;;;5039385;28;20364;-60
2022/04/11 04:07:42;;;;;;;9.05;2.58;;;10.50;99.90;;;;;;5036591;28;20490;-60
2022/04/11 04:10:08;;;;;;;6.82;2.30;;;10.50;99.90;;;;;;5037459;28;20040;-61
2022/04/11 04:12:34;;;;;;;10.60;2.47;;;10.50;99.90;;;;;;5037587;28;20033;-60
2022/04/11 04:15:00;;;;;;;6.45;2.17;;;10.50;99.90;;;;;;5033290;28;20044;-60
2022/04/11 04:17:26;;;;;;;7.30;2.47;;;10.50;99.90;;;;;;5036455;28;20045;-60
2022/04/11 04:19:51;;;;;;;10.90;2.70;;;10.50;99.90;;;;;;5036979;28;20022;-60
2022/04/11 04:22:17;;;;;;;10.50;2.47;;;10.40;99.90;;;;;;5037379;28;20117;-60
2022/04/11 04:24:43;;;;;;;10.15;2.67;;;10.40;99.90;;;;;;5037891;28;20014;-60
2022/04/11 04:27:09;;;;;;;9.38;2.72;;;10.50;99.90;;;;;;5035885;28;20069;-61
2022/04/11 04:29:35;;;;;;;8.35;2.60;;;10.40;99.90;;;;;;5033080;28;20033;-60
2022/04/11 04:32:01;;;;;;;8.43;2.50;;;10.50;99.90;;;;;;5039249;28;20406;-60
2022/04/11 04:34:29;;;;;;;9.85;3.00;;;10.40;99.90;;;;;;5037311;28;20069;-60
2022/04/11 04:36:55;;;;;;;7.82;3.00;;;10.40;99.90;;;;;;5037103;28;20054;-60
2022/04/11 04:39:20;;;;;;;8.10;2.65;;;10.40;99.90;;;;;;5037210;28;20055;-60
2022/04/11 04:41:46;;;;;;;8.30;2.70;;;10.40;99.90;;;;;;5033093;28;20030;-60
2022/04/11 04:44:12;;;;;;;8.00;2.75;;;10.50;99.90;;;;;;5046045;28;20029;-60
2022/04/11 04:46:38;;;;;;;23.00;10.95;;;10.40;99.90;;;;;;5036004;28;20021;-60
2022/04/11 04:49:04;;;;;;;27.08;13.13;;;10.40;99.90;;;;;;5036950;28;20040;-60
2022/04/11 04:51:29;;;;;;;28.60;12.63;;;10.40;99.90;;;;;;5037145;28;20041;-60
2022/04/11 04:53:55;;;;;;;14.70;7.13;;;10.40;99.90;;;;;;5032475;28;20076;-60
2022/04/11 04:56:21;;;;;;;14.65;5.45;;;10.50;99.90;;;;;;5036560;28;20050;-61
2022/04/11 04:58:47;;;;;;;14.82;5.70;;;10.40;99.90;;;;;;5035258;28;20037;-60
2022/04/11 05:01:14;;;;;;;10.88;4.68;;;10.40;99.90;;;;;;5035394;28;20049;-60
2022/04/11 05:03:41;;;;;;;13.23;4.15;;;10.50;99.90;;;;;;5037071;28;20075;-60
2022/04/11 05:06:07;;;;;;;10.45;3.15;;;10.50;99.90;;;;;;5035087;28;20134;-60
2022/04/11 05:08:33;;;;;;;11.00;3.03;;;10.40;99.90;;;;;;5033946;28;20037;-60
2022/04/11 05:11:00;;;;;;;12.55;3.38;;;10.40;99.90;;;;;;5038372;28;20498;-60
2022/04/11 05:13:25;;;;;;;7.57;2.95;;;10.40;99.90;;;;;;5036438;28;20105;-60
2022/04/11 05:15:51;;;;;;;13.82;3.83;;;10.40;99.90;;;;;;5036343;28;20104;-61
2022/04/11 05:18:17;;;;;;;12.98;3.30;;;10.40;99.90;;;;;;5036646;28;20025;-61
2022/04/11 05:20:43;;;;;;;11.90;3.58;;;10.40;99.90;;;;;;5032388;28;20061;-61
2022/04/11 05:23:08;;;;;;;10.70;3.83;;;10.40;99.90;;;;;;5038257;28;20117;-60
2022/04/11 05:25:34;;;;;;;9.70;3.08;;;10.40;99.90;;;;;;5036373;28;20049;-61
2022/04/11 05:28:00;;;;;;;15.68;5.43;;;10.40;99.90;;;;;;5035898;28;20029;-61
2022/04/11 05:30:26;;;;;;;11.55;3.90;;;10.40;99.90;;;;;;5035940;28;20048;-61
2022/04/11 05:32:52;;;;;;;11.57;4.38;;;10.40;99.90;;;;;;5031128;28;20026;-61
2022/04/11 05:35:17;;;;;;;12.30;4.20;;;10.40;99.90;;;;;;5036706;28;20506;-61
2022/04/11 05:37:43;;;;;;;15.80;5.80;;;10.40;99.90;;;;;;5035463;28;20021;-61
2022/04/11 05:40:11;;;;;;;11.82;3.90;;;10.40;99.90;;;;;;5035850;28;20037;-61
2022/04/11 05:42:37;;;;;;;10.27;3.42;;;10.40;99.90;;;;;;5035573;28;20029;-61
2022/04/11 05:45:06;;;;;;;10.15;3.88;;;10.50;99.90;;;;;;5033829;28;20036;-61
2022/04/11 05:47:32;;;;;;;13.73;6.57;;;10.50;99.90;;;;;;5033283;28;20037;-61
2022/04/11 05:49:57;;;;;;;19.80;8.77;;;10.50;99.90;;;;;;5037726;28;20048;-61
2022/04/11 05:52:23;;;;;;;15.55;6.85;;;10.60;99.90;;;;;;5035757;28;20033;-61
2022/04/11 05:54:49;;;;;;;14.63;7.30;;;10.60;99.90;;;;;;5035807;28;20080;-61
2022/04/11 05:57:14;;;;;;;15.93;6.90;;;10.60;99.90;;;;;;5035137;28;20037;-61
2022/04/11 05:59:41;;;;;;;16.05;6.60;;;10.70;99.90;;;;;;5032047;28;20103;-61
2022/04/11 06:02:09;;;;;;;17.42;6.93;;;10.80;99.90;;;;;;5037693;28;20017;-61
2022/04/11 06:04:37;;;;;;;11.55;5.90;;;10.80;99.90;;;;;;5035554;28;20065;-61
2022/04/11 06:07:04;;;;;;;11.07;4.95;;;10.90;99.90;;;;;;5035523;28;20080;-61
2022/04/11 06:09:30;;;;;;;17.23;8.27;;;10.90;99.90;;;;;;5035821;28;20021;-62
2022/04/11 06:11:56;;;;;;;15.18;8.10;;;11.00;99.90;;;;;;5029772;28;20071;-62
2022/04/11 06:14:22;;;;;;;13.75;7.50;;;11.00;99.90;;;;;;5035275;28;20022;-61
2022/04/11 06:16:48;;;;;;;15.60;7.60;;;11.10;99.90;;;;;;5034802;28;20048;-61
2022/04/11 06:19:14;;;;;;;15.38;4.82;;;11.10;99.90;;;;;;5035265;28;20478;-61
2022/04/11 06:21:39;;;;;;;13.18;4.57;;;11.20;99.90;;;;;;5035099;28;20048;-61
2022/04/11 06:24:06;;;;;;;10.98;5.45;;;11.20;99.90;;;;;;5033083;28;20013;-61
2022/04/11 06:26:31;;;;;;;11.98;4.53;;;11.30;99.90;;;;;;5032940;28;20039;-61
2022/04/11 06:28:57;;;;;;;12.55;4.60;;;11.40;99.90;;;;;;5037059;28;20475;-61
2022/04/11 06:31:23;;;;;;;12.13;4.90;;;11.50;99.90;;;;;;5035004;28;20044;-61
2022/04/11 06:33:48;;;;;;;13.02;4.25;;;11.50;99.90;;;;;;5034776;28;20060;-61
2022/04/11 06:36:14;;;;;;;12.90;5.35;;;11.70;99.90;;;;;;5033663;28;20175;-60
2022/04/11 06:38:40;;;;;;;12.48;4.40;;;11.90;99.90;;;;;;5029554;28;20053;-60
2022/04/11 06:41:05;;;;;;;11.27;4.55;;;12.00;99.90;;;;;;5036685;28;20116;-60
2022/04/11 06:43:31;;;;;;;13.55;6.13;;;11.90;99.90;;;;;;5035202;28;20033;-60
2022/04/11 06:45:57;;;;;;;11.80;4.93;;;12.30;99.90;;;;;;5034657;28;20026;-60
2022/04/11 06:48:22;;;;;;;10.35;3.83;;;13.70;99.90;;;;;;5034834;28;20394;-59
2022/04/11 06:50:50;;;;;;;12.07;3.35;;;14.40;99.90;;;;;;5028849;28;20038;-59
2022/04/11 06:53:15;;;;;;;10.95;3.72;;;13.60;99.90;;;;;;5035831;28;20447;-59
2022/04/11 06:55:43;;;;;;;8.63;3.00;;;13.80;99.90;;;;;;5033199;28;20083;-59
2022/04/11 06:58:09;;;;;;;7.38;2.97;;;14.20;99.90;;;;;;5034264;28;20127;-60
2022/04/11 07:00:35;;;;;;;8.20;3.10;;;14.70;99.90;;;;;;5034449;28;20037;-59
2022/04/11 07:03:00;;;;;;;12.50;3.47;;;14.80;99.90;;;;;;5031900;28;20033;-59
2022/04/11 07:05:26;;;;;;;17.25;8.38;;;15.20;99.90;;;;;;5033724;28;20033;-60
2022/04/11 07:07:52;;;;;;;12.50;5.20;;;14.50;99.90;;;;;;5035416;28;20053;-60
2022/04/11 07:10:18;;;;;;;10.95;3.53;;;14.60;99.90;;;;;;5032892;28;20064;-61
2022/04/11 07:12:43;;;;;;;11.05;3.60;;;14.80;99.90;;;;;;5034585;28;20454;-60
2022/04/11 07:15:09;;;;;;;15.43;3.53;;;14.90;99.90;;;;;;5032937;28;20490;-60
2022/04/11 07:17:35;;;;;;;14.38;4.38;;;14.90;99.90;;;;;;5030968;28;20368;-60
2022/04/11 07:20:02;;;;;;;11.32;3.30;;;14.80;99.90;;;;;;5047975;28;20100;-60
2022/04/11 07:22:28;;;;;;;10.55;3.55;;;14.90;99.90;;;;;;5034564;28;20021;-60
2022/04/11 07:24:54;;;;;;;11.07;3.72;;;15.40;99.90;;;;;;5033820;28;20025;-60
2022/04/11 07:27:20;;;;;;;8.95;3.05;;;16.40;99.90;;;;;;5032946;28;20397;-60
2022/04/11 07:29:46;;;;;;;8.18;2.85;;;17.80;99.90;;;;;;5027207;28;20030;-59
2022/04/11 07:32:11;;;;;;;10.10;2.90;;;18.40;99.90;;;;;;5035228;28;20395;-60
2022/04/11 07:34:37;;;;;;;11.73;3.35;;;19.00;99.90;;;;;;5032171;28;20047;-60
2022/04/11 07:37:05;;;;;;;8.35;3.28;;;19.20;99.90;;;;;;5033717;28;20056;-60
2022/04/11 07:39:31;;;;;;;9.95;3.10;;;19.10;99.90;;;;;;5033633;28;20028;-60
2022/04/11 07:41:57;;;;;;;9.77;3.03;;;18.60;99.90;;;;;;5030673;28;20033;-60
2022/04/11 07:44:23;;;;;;;11.13;3.10;;;18.00;99.90;;;;;;5033754;28;20057;-60
2022/04/11 07:46:48;;;;;;;8.38;3.10;;;17.40;99.90;;;;;;5034822;28;20366;-60
2022/04/11 07:49:15;;;;;;;9.85;3.00;;;18.00;99.90;;;;;;5033535;28;20018;-60
2022/04/11 07:51:40;;;;;;;10.10;2.80;;;19.80;99.90;;;;;;5033606;28;20112;-60
2022/04/11 07:54:06;;;;;;;9.23;2.65;;;20.40;99.90;;;;;;5032014;28;20036;-60
2022/04/11 07:56:32;;;;;;;8.48;2.70;;;19.80;99.90;;;;;;5031609;28;20034;-60
2022/04/11 07:58:58;;;;;;;11.98;3.30;;;21.00;99.90;;;;;;5035712;28;20025;-60
2022/04/11 08:01:24;;;;;;;13.38;4.72;;;21.30;99.90;;;;;;5033469;28;20037;-60
2022/04/11 08:03:50;;;;;;;10.05;2.95;;;20.80;99.90;;;;;;5026611;28;20027;-61
2022/04/11 08:06:17;;;;;;;8.95;3.33;;;19.90;99.90;;;;;;5032621;28;20040;-60
2022/04/11 08:08:46;;;;;;;8.20;3.58;;;21.80;99.40;;;;;;5028551;28;20570;-60
2022/04/11 08:11:15;;;;;;;12.88;3.33;;;21.30;99.50;;;;;;5035050;28;20072;-60
2022/04/11 08:13:42;;;;;;;10.23;3.53;;;22.20;98.00;;;;;;5030375;28;20029;-60
2022/04/11 08:16:08;;;;;;;11.75;3.00;;;22.00;98.30;;;;;;5033055;28;20036;-61
2022/04/11 08:18:34;;;;;;;9.80;3.60;;;22.00;97.80;;;;;;5033027;28;20028;-61
2022/04/11 08:21:04;;;;;;;9.20;2.95;;;22.50;97.00;;;;;;5030317;28;20025;-60
2022/04/11 08:23:30;;;;;;;10.68;3.03;;;22.00;97.20;;;;;;5030755;28;20040;-61
2022/04/11 08:25:56;;;;;;;9.35;3.00;;;21.00;98.30;;;;;;5032872;28;20049;-61
2022/04/11 08:28:22;;;;;;;8.38;3.00;;;21.50;98.10;;;;;;5033304;28;20506;-60
2022/04/11 08:30:49;;;;;;;8.93;3.33;;;22.40;96.50;;;;;;5033027;28;20042;-61
2022/04/11 08:33:15;;;;;;;10.52;2.95;;;21.90;97.10;;;;;;5032810;28;20041;-60
2022/04/11 08:35:41;;;;;;;8.07;2.63;;;21.00;98.00;;;;;;5030841;28;20224;-60
2022/04/11 08:38:07;;;;;;;9.25;2.78;;;21.10;97.90;;;;;;5038736;28;20100;-61
2022/04/11 08:40:33;;;;;;;7.45;3.08;;;20.40;99.10;;;;;;5036700;28;20084;-61
2022/04/11 08:42:59;;;;;;;7.38;3.08;;;20.20;99.30;;;;;;5036862;28;20021;-60
2022/04/11 08:45:27;;;;;;;8.57;3.10;;;21.60;98.10;;;;;;5036618;28;20033;-60
2022/04/11 08:47:56;;;;;;;12.00;3.47;;;20.70;99.00;;;;;;5030027;28;20394;-60
2022/04/11 08:50:26;;;;;;;9.23;2.70;;;21.30;98.30;;;;;;5035927;28;20025;-60
2022/04/11 08:52:54;;;;;;;8.07;2.95;;;23.50;95.90;;;;;;5038113;28;20559;-60
2022/04/11 08:55:21;;;;;;;8.57;2.92;;;21.00;97.80;;;;;;5036098;28;20025;-61
2022/04/11 08:57:47;;;;;;;9.32;3.25;;;20.50;98.90;;;;;;5034903;28;20029;-60
2022/04/11 09:00:20;;;;;;;13.57;3.10;;;21.30;97.60;;;;;;5035477;28;20044;-60
2022/04/11 09:02:46;;;;;;;7.45;2.67;;;22.70;96.70;;;;;;5015904;28;20565;-60
2022/04/11 09:05:17;;;;;;;9.80;3.15;;;23.10;95.40;;;;;;5038001;28;20112;-60
2022/04/11 09:07:45;;;;;;;10.20;2.90;;;23.40;95.40;;;;;;5036457;28;20037;-61
2022/04/11 09:10:11;;;;;;;9.85;3.00;;;23.30;95.40;;;;;;5034772;28;20394;-61
2022/04/11 09:12:51;;;;;;;11.13;3.40;;;22.70;95.40;;;;;;5036002;28;20444;-61
2022/04/11 09:15:18;;;;;;;10.77;2.80;;;22.90;96.10;;;;;;5028223;28;20394;-61
2022/04/11 09:17:45;;;;;;;11.02;3.10;;;24.30;94.10;;;;;;5031692;28;20034;-61
2022/04/11 09:20:13;;;;;;;8.38;2.90;;;24.40;93.60;;;;;;5036137;28;20116;-61
2022/04/11 09:22:40;;;;;;;11.98;3.53;;;24.00;94.50;;;;;;5035842;28;20032;-61
2022/04/11 09:25:11;;;;;;;9.32;2.85;;;23.70;94.10;;;;;;5035738;28;20029;-61
2022/04/11 09:27:37;;;;;;;9.77;3.00;;;22.10;95.80;;;;;;5034430;28;20032;-61
2022/04/11 09:30:17;;;;;;;9.68;2.83;;;22.90;95.40;;;;;;5031691;28;20026;-61
2022/04/11 09:33:15;;;;;;;8.82;3.42;;;22.30;94.90;;;;;;5031753;28;20410;-61
2022/04/11 09:35:44;;;;;;;13.32;3.72;;;23.00;94.70;;;;;;5010255;28;20085;-61
2022/04/11 09:38:09;;;;;;;9.40;2.80;;;23.00;94.40;;;;;;5011609;28;20041;-60
2022/04/11 09:40:40;;;;;;;7.93;3.10;;;23.20;94.10;;;;;;5011193;28;20418;-61
2022/04/11 09:43:07;;;;;;;8.38;2.90;;;23.10;94.10;;;;;;5010764;28;20029;-60
2022/04/11 09:45:43;;;;;;;10.45;3.10;;;23.20;94.20;;;;;;5010393;28;20072;-61
2022/04/11 09:48:09;;;;;;;7.50;2.70;;;23.30;93.70;;;;;;5010440;28;20053;-61
2022/04/11 09:50:35;;;;;;;9.30;2.83;;;23.00;94.10;;;;;;5011200;28;20495;-61
2022/04/11 09:53:18;;;;;;;9.05;2.70;;;23.20;93.80;;;;;;5010885;28;20063;-61
2022/04/11 09:55:47;;;;;;;9.25;2.83;;;23.60;93.60;;;;;;5010815;28;20112;-61
2022/04/11 09:58:14;;;;;;;9.35;2.50;;;23.80;93.00;;;;;;5010284;28;20491;-61
2022/04/11 10:00:42;;;;;;;9.63;3.15;;;23.00;94.10;;;;;;5010289;28;20038;-61
2022/04/11 10:03:08;;;;;;;13.90;3.13;;;23.50;93.20;;;;;;5010480;28;20026;-60
2022/04/11 10:05:38;;;;;;;9.45;2.72;;;23.10;94.30;;;;;;4993796;28;20068;-61
2022/04/11 10:08:09;;;;;;;8.68;3.03;;;24.00;92.80;;;;;;5010944;28;20041;-60
2022/04/11 10:10:39;;;;;;;12.40;3.20;;;23.20;93.70;;;;;;5010408;28;20063;-61
2022/04/11 10:13:14;;;;;;;10.25;3.00;;;23.40;93.90;;;;;;5029680;28;20036;-61
2022/04/11 10:15:41;;;;;;;7.07;2.72;;;22.30;95.10;;;;;;5034453;28;20040;-62
2022/04/11 10:18:08;;;;;;;7.75;2.78;;;22.00;94.80;;;;;;5032859;28;20168;-61
2022/04/11 10:20:36;;;;;;;13.65;3.58;;;22.10;95.10;;;;;;5032380;28;20037;-61
2022/04/11 10:23:25;;;;;;;9.85;2.83;;;22.00;95.20;;;;;;5037072;28;20022;-61
2022/04/11 10:25:52;;;;;;;10.25;2.85;;;22.70;94.80;;;;;;5036035;28;20037;-61
2022/04/11 10:28:25;;;;;;;9.65;2.92;;;22.70;94.40;;;;;;5035051;28;20021;-60
2022/04/11 10:31:05;;;;;;;9.15;2.60;;;23.00;94.30;;;;;;5034507;28;20033;-60
2022/04/11 10:33:48;;;;;;;14.75;3.38;;;23.50;93.60;;;;;;5034918;28;20021;-61
2022/04/11 10:36:37;;;;;;;10.05;2.70;;;23.40;94.10;;;;;;5033844;28;20503;-60
2022/04/11 10:39:15;;;;;;;10.98;2.70;;;23.20;94.00;;;;;;5018846;28;20030;-61
2022/04/11 10:41:56;;;;;;;10.32;2.63;;;23.60;93.30;;;;;;5031187;28;20045;-61
2022/04/11 10:44:31;;;;;;;10.38;3.17;;;23.80;93.20;;;;;;5059778;28;20489;-61
2022/04/11 10:47:09;;;;;;;10.43;3.15;;;22.90;93.90;;;;;;5036018;28;20029;-60
2022/04/11 10:49:50;;;;;;;11.60;3.28;;;23.00;94.20;;;;;;5033063;28;20032;-61
2022/04/11 10:52:33;;;;;;;11.50;2.92;;;23.60;93.60;;;;;;5034467;28;20044;-60
2022/04/11 10:55:11;;;;;;;13.27;3.00;;;24.10;93.20;;;;;;5034561;28;20390;-60
2022/04/11 10:57:38;;;;;;;11.57;2.80;;;23.70;93.10;;;;;;5033926;28;20041;-61
2022/04/11 11:00:07;;;;;;;13.23;2.53;;;23.90;92.40;;;;;;5031741;28;20025;-60
2022/04/11 11:02:57;;;;;;;14.35;2.85;;;23.80;93.10;;;;;;5031081;28;20051;-61
2022/04/11 11:05:42;;;;;;;13.15;2.80;;;24.00;92.50;;;;;;5041274;28;20041;-59
2022/04/11 11:08:11;;;;;;;9.82;2.92;;;24.50;91.70;;;;;;5036290;28;20502;-61
2022/04/11 11:10:55;;;;;;;9.70;3.03;;;24.20;91.70;;;;;;5033968;28;20082;-62
2022/04/11 11:13:39;;;;;;;12.85;2.90;;;24.20;91.80;;;;;;5034082;28;20053;-62
2022/04/11 11:16:07;;;;;;;10.85;3.08;;;23.50;92.40;;;;;;5033854;28;20083;-62
2022/04/11 11:18:48;;;;;;;9.25;2.80;;;23.60;92.40;;;;;;5034089;28;20071;-62
2022/04/11 11:21:27;;;;;;;11.45;2.75;;;23.40;92.60;;;;;;5033296;28;20023;-61
2022/04/11 11:24:08;;;;;;;11.35;3.42;;;23.40;92.60;;;;;;5013907;28;20041;-61
2022/04/11 11:26:41;;;;;;;12.05;2.83;;;23.20;93.00;;;;;;5031821;28;20053;-61
2022/04/11 11:29:23;;;;;;;11.75;2.67;;;23.70;93.10;;;;;;5034848;28;20041;-62
2022/04/11 11:31:55;;;;;;;13.15;2.85;;;24.10;92.70;;;;;;5033241;28;20048;-62
2022/04/11 11:34:23;;;;;;;8.68;2.45;;;24.50;91.20;;;;;;5034428;28;20025;-61
2022/04/11 11:36:51;;;;;;;12.75;3.20;;;24.00;92.00;;;;;;5033778;28;20042;-61
2022/04/11 11:39:18;;;;;;;10.35;2.88;;;24.90;91.50;;;;;;5033356;28;20436;-61
2022/04/11 11:41:49;;;;;;;14.80;3.22;;;25.60;91.00;;;;;;5030263;28;20476;-62
2022/04/11 11:44:16;;;;;;;14.82;2.85;;;25.40;90.50;;;;;;5042883;28;20025;-62
2022/04/11 11:46:53;;;;;;;16.92;3.05;;;25.30;90.50;;;;;;5034137;28;20025;-61
2022/04/11 11:49:23;;;;;;;17.30;3.38;;;25.10;90.30;;;;;;5034214;28;20544;-62
2022/04/11 11:51:50;;;;;;;11.32;2.40;;;24.90;90.30;;;;;;5033852;28;20052;-62
2022/04/11 11:54:31;;;;;;;13.15;2.83;;;24.40;90.90;;;;;;5033342;28;20029;-62
2022/04/11 11:56:57;;;;;;;12.52;2.90;;;24.60;90.20;;;;;;5016169;28;20033;-62
2022/04/11 11:59:22;;;;;;;11.50;2.58;;;25.10;90.20;;;;;;5033592;28;20040;-61
2022/04/11 12:04:37;;;;;;;10.30;2.92;;;25.30;89.50;;;;;;5032740;28;20521;-61
2022/04/11 12:07:04;;;;;;;10.55;3.97;;;25.10;90.70;;;;;;5031138;28;20442;-61
2022/04/11 12:09:34;;;;;;;10.85;2.70;;;25.00;90.30;;;;;;5035361;28;20063;-60
2022/04/11 12:12:00;;;;;;;11.90;3.05;;;24.70;90.50;;;;;;5035008;28;20029;-61
2022/04/11 12:14:25;;;;;;;10.02;2.80;;;25.10;90.60;;;;;;5037328;28;20079;-61
2022/04/11 12:17:00;;;;;;;17.23;3.70;;;24.90;90.30;;;;;;5038474;28;20057;-61
2022/04/11 12:19:34;;;;;;;14.10;3.05;;;24.30;90.70;;;;;;5036672;28;20437;-61
2022/04/11 12:22:14;;;;;;;11.43;2.88;;;24.70;90.80;;;;;;5037561;28;20029;-61
2022/04/11 12:24:40;;;;;;;13.63;2.90;;;24.60;90.60;;;;;;5037301;28;20025;-61
2022/04/11 12:27:12;;;;;;;15.85;3.40;;;24.70;91.00;;;;;;5034873;28;20072;-61
2022/04/11 12:29:40;;;;;;;19.60;3.30;;;24.20;90.50;;;;;;5034365;28;20033;-61
2022/04/11 12:32:12;;;;;;;13.38;2.95;;;24.20;91.00;;;;;;5039069;28;20033;-61
2022/04/11 12:34:39;;;;;;;14.60;2.80;;;24.40;90.60;;;;;;5037114;28;20028;-61
2022/04/11 12:37:07;;;;;;;14.45;2.92;;;24.90;90.20;;;;;;5037213;28;20073;-62
2022/04/11 12:39:53;;;;;;;13.25;2.65;;;24.70;90.50;;;;;;5036834;28;20082;-61
2022/04/11 12:42:20;;;;;;;15.63;3.40;;;25.10;90.00;;;;;;5034925;28;20025;-62
2022/04/11 12:44:49;;;;;;;15.95;2.63;;;24.60;90.50;;;;;;5031974;28;20038;-61
2022/04/11 12:47:15;;;;;;;19.23;2.75;;;24.70;90.80;;;;;;5045762;28;20039;-61
2022/04/11 12:49:52;;;;;;;12.65;3.08;;;24.50;90.80;;;;;;5037370;28;20417;-61